VTUO

Details ICAO VTUO (BFV)
Name Burirum
Region Thailand
Timezone Asia/Bangkok (UTC+7.0)
Plans Departing 8
Arriving 12
Stats Elevation 590 ft / 180 m (AMSL)
Location 15.229537° 103.253231°
Runways 1
Magnetic Variation 0.739° W
Sunrise 2017-12-15 23:27:02 UTC / 2017-12-16 06:27:02 Local
Sunset 2017-12-16 10:40:42 UTC / 2017-12-16 17:40:42 Local
Advertisement - Login to hide

Runways

ID Width Length Bearing (true) Bearing (mag) Surface Threshold Offset Overrun Length
04 148 ft / 45 m 6,930 ft / 2,112 m 34.94° 35.68° Asphalt 0 ft / 0 m 1,726 ft / 526 m
22 148 ft / 45 m 6,930 ft / 2,112 m 214.94° 215.68° Asphalt 0 ft / 0 m 1,704 ft / 519 m

Approach Navaids

Runway Type Ident Frequency Range Bearing (true) Bearing (mag) Slope Elevation
04 Localiser IBRM 109.30 MHz 18 nm / 33 km 34.93° 35.67° - 543 ft / 166 m (AMSL)
04 Glidescope IBRM 109.30 MHz 10 nm / 19 km 34.94° 35.68° 3.00° 590 ft / 180 m (AMSL)
04 DME IBRM 109.30 MHz 18 nm / 33 km - - - 543 ft / 166 m (AMSL)

Map

Weather


0- 5 10 15 20 25 30 35+ Temperature / ° C

Clouds and Precipitation
Forecast for 2017-12-16 12:00 UTC. Updated 24 minutes ago

Ground ~20,000 ft ~40,000 ft Winds

METAR

VTUO 160700Z 06013KT 020V120 9999 SCT025 31/20 Q1014 A2995 INFO H RWY 04

TAF

TAF VTUO 160500Z 1606/1706 06010KT 9999 FEW030 BECMG 1614/1616 04012KT

Frequencies

Tower 119.90 MHz TWR
Approach 123.60 MHz APP
Warning: Do not use this data for real-world aviation or navigation. No guarantee of current accuracy is given.